Time;durP1;ratioP1;P1;durP2;ratioP2;P2;SDS_P1;SDS_P2;PMS_P1;PMS_P2;Temp;Humidity;BMP_temperature;BMP_pressure;BME280_temperature;BME280_humidity;BME280_pressure;Samples;Min_cycle;Max_cycle;Signal;HPM_P1;HPM_P2
2022/04/30 00:00:52;;;;;;;10.77;6.95;;;4.00;99.90;;;;;;5112171;28;20099;-77
2022/04/30 00:03:19;;;;;;;16.17;8.85;;;4.00;99.90;;;;;;5114005;28;20490;-77
2022/04/30 00:05:44;;;;;;;13.82;7.88;;;4.10;99.90;;;;;;5112807;28;20050;-77
2022/04/30 00:08:10;;;;;;;17.33;8.23;;;4.10;99.90;;;;;;5111896;28;20043;-77
2022/04/30 00:10:39;;;;;;;13.10;8.90;;;4.10;99.90;;;;;;5112252;28;20100;-77
2022/04/30 00:13:07;;;;;;;12.25;8.80;;;4.10;99.90;;;;;;5112190;28;20505;-77
2022/04/30 00:15:34;;;;;;;15.63;9.18;;;4.10;99.90;;;;;;5111932;28;20056;-77
2022/04/30 00:18:01;;;;;;;12.73;7.40;;;4.10;99.90;;;;;;5093720;28;20044;-77
2022/04/30 00:20:27;;;;;;;14.43;8.63;;;4.10;99.90;;;;;;5106937;28;20043;-77
2022/04/30 00:22:53;;;;;;;12.27;7.90;;;4.00;99.90;;;;;;5112277;28;20088;-77
2022/04/30 00:25:19;;;;;;;13.43;8.95;;;4.00;99.90;;;;;;5112722;28;20086;-77
2022/04/30 00:27:44;;;;;;;13.70;8.50;;;4.00;99.90;;;;;;5110629;28;20040;-77
2022/04/30 00:30:11;;;;;;;12.15;8.65;;;4.00;99.90;;;;;;5113785;28;20039;-77
2022/04/30 00:32:37;;;;;;;17.25;7.97;;;4.00;99.90;;;;;;5111249;28;20053;-77
2022/04/30 00:35:03;;;;;;;11.90;7.05;;;4.00;99.90;;;;;;5113210;28;20115;-77
2022/04/30 00:37:30;;;;;;;9.68;6.82;;;4.00;99.90;;;;;;5112538;28;20479;-77
2022/04/30 00:39:55;;;;;;;9.85;7.40;;;4.00;99.90;;;;;;5112726;28;20047;-77
2022/04/30 00:42:21;;;;;;;13.30;7.97;;;3.90;99.90;;;;;;5111804;28;20506;-77
2022/04/30 00:44:47;;;;;;;13.52;9.55;;;4.00;99.90;;;;;;5113677;28;20044;-77
2022/04/30 00:47:18;;;;;;;17.98;8.77;;;4.00;99.90;;;;;;5104962;28;20043;-77
2022/04/30 00:49:45;;;;;;;13.70;8.70;;;4.00;99.90;;;;;;5092625;28;20177;-77
2022/04/30 00:52:15;;;;;;;17.73;10.13;;;4.00;99.90;;;;;;5099144;28;20056;-78
2022/04/30 00:54:42;;;;;;;11.50;7.93;;;3.90;99.90;;;;;;5115449;28;20076;-77
2022/04/30 00:57:16;;;;;;;10.18;7.82;;;4.00;99.90;;;;;;5114338;28;20047;-77
2022/04/30 00:59:44;;;;;;;11.38;7.43;;;3.90;99.90;;;;;;5133568;27;20046;-77
2022/04/30 01:02:11;;;;;;;12.52;9.30;;;4.00;99.90;;;;;;5115054;28;20050;-77
2022/04/30 01:04:37;;;;;;;18.92;10.88;;;4.00;99.90;;;;;;5116717;28;20050;-77
2022/04/30 01:07:07;;;;;;;20.48;9.55;;;4.00;99.90;;;;;;5116279;28;20486;-77
2022/04/30 01:09:35;;;;;;;18.33;9.57;;;4.00;99.90;;;;;;5117831;27;20414;-77
2022/04/30 01:12:03;;;;;;;15.35;8.80;;;4.00;99.90;;;;;;5115422;28;20039;-77
2022/04/30 01:14:31;;;;;;;17.80;10.25;;;4.00;99.90;;;;;;5115894;28;20367;-77
2022/04/30 01:17:02;;;;;;;14.63;9.73;;;4.00;99.90;;;;;;5116223;28;20048;-77
2022/04/30 01:19:28;;;;;;;12.43;8.65;;;4.00;99.90;;;;;;5132209;27;20040;-77
2022/04/30 01:22:00;;;;;;;20.95;9.65;;;4.00;99.90;;;;;;5115737;28;20459;-78
2022/04/30 01:24:27;;;;;;;12.70;8.80;;;4.00;99.90;;;;;;5115353;28;20050;-77
2022/04/30 01:26:55;;;;;;;15.18;9.23;;;3.90;99.90;;;;;;5116885;28;20035;-77
2022/04/30 01:29:23;;;;;;;21.65;8.98;;;3.90;99.90;;;;;;5116837;28;20140;-77
2022/04/30 01:37:25;;;;;;;10.35;6.53;;;3.80;99.90;;;;;;5115587;28;20134;-78
2022/04/30 01:39:59;;;;;;;11.65;7.95;;;3.90;99.90;;;;;;5113598;28;20043;-78
2022/04/30 01:42:29;;;;;;;12.90;8.80;;;3.80;99.90;;;;;;5115455;28;20040;-77
2022/04/30 01:44:56;;;;;;;16.08;7.47;;;3.80;99.90;;;;;;5113175;28;20429;-77
2022/04/30 01:47:23;;;;;;;11.80;7.88;;;3.80;99.90;;;;;;5115330;28;20047;-77
2022/04/30 01:49:49;;;;;;;12.52;8.20;;;3.70;99.90;;;;;;5114363;28;20551;-77
2022/04/30 01:52:15;;;;;;;12.82;7.32;;;3.70;99.90;;;;;;5114117;28;20070;-77
2022/04/30 01:54:42;;;;;;;10.20;6.88;;;3.70;99.90;;;;;;5114376;28;20131;-77
2022/04/30 01:57:08;;;;;;;15.93;8.50;;;3.70;99.90;;;;;;5115607;27;20111;-77
2022/04/30 01:59:34;;;;;;;15.90;9.68;;;3.70;99.90;;;;;;5113329;28;20079;-78
2022/04/30 02:02:02;;;;;;;12.23;8.20;;;3.80;99.90;;;;;;5115417;28;20044;-77
2022/04/30 02:04:30;;;;;;;14.10;8.43;;;3.80;99.90;;;;;;5114559;28;20066;-77
2022/04/30 02:06:59;;;;;;;10.98;8.27;;;3.80;99.90;;;;;;5114071;28;20420;-77
2022/04/30 02:09:29;;;;;;;10.98;8.50;;;3.80;99.90;;;;;;5115154;27;20047;-77
2022/04/30 02:11:59;;;;;;;12.57;7.20;;;3.80;99.90;;;;;;5113835;28;20044;-77
2022/04/30 02:14:30;;;;;;;13.30;9.82;;;3.80;99.90;;;;;;5113977;28;20047;-77
2022/04/30 02:17:00;;;;;;;12.23;8.50;;;3.80;99.90;;;;;;5115073;28;20118;-77
2022/04/30 02:19:28;;;;;;;16.00;8.98;;;3.80;99.90;;;;;;5114781;28;20451;-77
2022/04/30 02:21:58;;;;;;;10.70;7.82;;;3.80;99.90;;;;;;5114080;28;20181;-77
2022/04/30 02:24:28;;;;;;;10.98;7.60;;;3.80;99.90;;;;;;5115955;28;20510;-77
2022/04/30 02:26:54;;;;;;;9.48;6.97;;;3.70;99.90;;;;;;5109706;28;20040;-77
2022/04/30 02:29:20;;;;;;;11.85;7.47;;;3.70;99.90;;;;;;5094728;28;20488;-78
2022/04/30 02:31:47;;;;;;;10.93;7.90;;;3.70;99.90;;;;;;5098882;28;20032;-77
2022/04/30 02:34:13;;;;;;;9.88;7.25;;;3.80;99.90;;;;;;5114933;28;20047;-77
2022/04/30 02:36:39;;;;;;;11.85;7.50;;;3.80;99.90;;;;;;5114641;28;20047;-78
2022/04/30 02:39:04;;;;;;;11.10;7.50;;;3.80;99.90;;;;;;5114302;28;20066;-77
2022/04/30 02:41:30;;;;;;;11.38;7.88;;;3.80;99.90;;;;;;5113854;28;20399;-78
2022/04/30 02:43:58;;;;;;;16.65;7.95;;;3.80;99.90;;;;;;5115328;28;20047;-77
2022/04/30 02:46:24;;;;;;;11.23;6.90;;;3.80;99.90;;;;;;5114442;28;20394;-77
2022/04/30 02:48:50;;;;;;;9.98;7.15;;;3.80;99.90;;;;;;5114573;28;20052;-77
2022/04/30 02:51:16;;;;;;;10.68;6.78;;;3.90;99.90;;;;;;5114343;28;20130;-77
2022/04/30 02:53:42;;;;;;;9.48;7.10;;;3.90;99.90;;;;;;5113988;28;20083;-77
2022/04/30 02:56:11;;;;;;;15.70;7.13;;;3.90;99.90;;;;;;5113512;28;20048;-78
2022/04/30 03:01:23;;;;;;;9.40;6.68;;;4.00;99.90;;;;;;5113895;28;20047;-77
2022/04/30 03:03:48;;;;;;;9.52;6.88;;;4.00;99.90;;;;;;5111667;28;20127;-78
2022/04/30 03:06:16;;;;;;;13.27;6.82;;;4.00;99.90;;;;;;5115106;28;20126;-78
2022/04/30 03:08:43;;;;;;;13.57;7.20;;;4.10;99.90;;;;;;5129479;27;20044;-77
2022/04/30 03:11:09;;;;;;;13.73;8.20;;;4.10;99.90;;;;;;5114058;28;20047;-78
2022/04/30 03:13:36;;;;;;;9.77;6.75;;;4.10;99.90;;;;;;5112550;28;20096;-78
2022/04/30 03:21:44;;;;;;;10.38;7.72;;;4.10;99.90;;;;;;5115397;28;20048;-78
2022/04/30 03:24:18;;;;;;;10.70;8.20;;;4.10;99.90;;;;;;5112190;27;20062;-78
2022/04/30 03:26:49;;;;;;;13.93;8.52;;;4.10;99.90;;;;;;5110106;28;20127;-78
2022/04/30 03:29:15;;;;;;;10.40;7.13;;;4.10;99.90;;;;;;5126397;27;20450;-78
2022/04/30 03:31:42;;;;;;;15.73;8.18;;;4.10;99.90;;;;;;5113926;28;20047;-78
2022/04/30 03:34:09;;;;;;;9.13;7.82;;;4.10;99.90;;;;;;5112231;28;20093;-78
2022/04/30 03:36:36;;;;;;;15.15;8.10;;;4.10;99.90;;;;;;5113344;28;20079;-78
2022/04/30 03:39:03;;;;;;;13.32;8.55;;;4.10;99.90;;;;;;5113795;28;20119;-78
2022/04/30 03:41:29;;;;;;;10.80;7.50;;;4.10;99.90;;;;;;5111215;28;20082;-78
2022/04/30 03:43:55;;;;;;;19.40;8.73;;;4.00;99.90;;;;;;5111588;28;20078;-77
2022/04/30 03:46:21;;;;;;;12.55;7.82;;;4.10;99.90;;;;;;5112076;28;20388;-77
2022/04/30 03:48:53;;;;;;;14.63;8.93;;;4.00;99.90;;;;;;5112160;28;20043;-78
2022/04/30 03:51:22;;;;;;;18.15;8.82;;;4.00;99.90;;;;;;5114473;28;20122;-78
2022/04/30 03:53:49;;;;;;;10.88;8.35;;;4.00;99.90;;;;;;5112262;28;20101;-78
2022/04/30 03:56:17;;;;;;;13.98;9.18;;;4.00;99.90;;;;;;5114411;28;20066;-78
2022/04/30 03:58:44;;;;;;;14.80;9.07;;;4.00;99.90;;;;;;5110995;28;20043;-78
2022/04/30 04:01:11;;;;;;;10.75;8.05;;;4.00;99.90;;;;;;5092441;28;20515;-78
2022/04/30 04:03:37;;;;;;;15.55;9.38;;;4.00;99.90;;;;;;5093820;28;20040;-78
2022/04/30 04:06:03;;;;;;;11.95;9.32;;;4.00;99.90;;;;;;5111878;28;20050;-78
2022/04/30 04:08:28;;;;;;;12.95;8.35;;;4.00;99.90;;;;;;5112976;28;20040;-78
2022/04/30 04:10:55;;;;;;;17.23;9.40;;;4.10;99.90;;;;;;5113161;28;20062;-78
2022/04/30 04:18:51;;;;;;;12.30;9.17;;;4.20;99.90;;;;;;5113005;28;20048;-78
2022/04/30 04:21:19;;;;;;;11.65;8.55;;;4.20;99.90;;;;;;5112999;28;20433;-78
2022/04/30 04:26:29;;;;;;;;;;;4.30;99.90;;;;;;5114103;28;20077;-78
2022/04/30 04:28:55;;;;;;;13.23;8.85;;;4.30;99.90;;;;;;5112746;28;19928;-78
2022/04/30 04:31:22;;;;;;;13.38;9.18;;;4.30;99.90;;;;;;5117016;28;20044;-78
2022/04/30 04:33:49;;;;;;;17.67;9.63;;;4.30;99.90;;;;;;5116167;28;20039;-78
2022/04/30 04:36:16;;;;;;;13.98;9.15;;;4.40;99.90;;;;;;5133733;27;20083;-78
2022/04/30 04:38:42;;;;;;;11.43;8.98;;;4.40;99.90;;;;;;5116193;28;20047;-78
2022/04/30 04:41:08;;;;;;;12.80;9.90;;;4.50;99.90;;;;;;5117284;28;20100;-78
2022/04/30 04:43:34;;;;;;;17.52;10.25;;;4.50;99.90;;;;;;5115555;28;20126;-78
2022/04/30 04:46:03;;;;;;;12.25;8.95;;;4.50;99.90;;;;;;5133809;27;20128;-78
2022/04/30 04:48:29;;;;;;;15.85;9.68;;;4.60;99.90;;;;;;5116230;28;20488;-78
2022/04/30 04:50:55;;;;;;;10.85;8.50;;;4.60;99.90;;;;;;5113819;28;21611;-78
2022/04/30 04:53:21;;;;;;;13.73;8.80;;;4.70;99.90;;;;;;5095795;28;20502;-78
2022/04/30 04:55:47;;;;;;;10.73;8.60;;;4.70;99.90;;;;;;5096601;28;20402;-78
2022/04/30 04:58:13;;;;;;;10.55;8.00;;;4.80;99.90;;;;;;5116593;28;20455;-78
2022/04/30 05:00:39;;;;;;;11.30;9.02;;;4.90;99.90;;;;;;5116341;28;20432;-78
2022/04/30 05:03:05;;;;;;;13.80;9.93;;;4.90;99.90;;;;;;5115523;28;20063;-78
2022/04/30 05:05:31;;;;;;;15.90;9.80;;;5.00;99.90;;;;;;5116280;28;20093;-78
2022/04/30 05:07:56;;;;;;;17.20;9.60;;;5.10;99.90;;;;;;5116479;28;20047;-78
2022/04/30 05:10:22;;;;;;;14.00;9.80;;;5.10;99.90;;;;;;5115931;28;20040;-78
2022/04/30 05:12:48;;;;;;;16.08;9.13;;;5.20;99.90;;;;;;5116218;28;20039;-78
2022/04/30 05:15:14;;;;;;;17.58;11.48;;;5.30;99.90;;;;;;5115104;28;20045;-78
2022/04/30 05:17:40;;;;;;;19.13;10.88;;;5.30;99.90;;;;;;5115017;28;20111;-78
2022/04/30 05:20:06;;;;;;;17.15;10.45;;;5.40;99.90;;;;;;5116179;28;20035;-78
2022/04/30 05:22:33;;;;;;;14.00;9.32;;;5.50;99.90;;;;;;5115951;28;20055;-78
2022/04/30 05:24:59;;;;;;;14.80;10.10;;;5.60;99.90;;;;;;5114289;28;20368;-78
2022/04/30 05:27:25;;;;;;;19.13;10.20;;;5.60;99.90;;;;;;5115678;28;20482;-78
2022/04/30 05:29:50;;;;;;;14.13;9.63;;;5.70;99.90;;;;;;5130920;27;20058;-78
2022/04/30 05:32:16;;;;;;;18.58;10.32;;;5.70;99.90;;;;;;5115416;28;20428;-78
2022/04/30 05:34:42;;;;;;;19.65;10.35;;;5.80;99.90;;;;;;5081173;28;20125;-78
2022/04/30 05:37:08;;;;;;;21.75;11.07;;;5.80;99.90;;;;;;5094215;28;20483;-78
2022/04/30 05:39:34;;;;;;;17.08;9.95;;;6.00;99.90;;;;;;5109349;28;20101;-78
2022/04/30 05:41:59;;;;;;;13.88;9.95;;;6.00;99.90;;;;;;5096647;28;20080;-78
2022/04/30 05:44:25;;;;;;;18.73;10.13;;;6.10;99.90;;;;;;5107512;28;20055;-78
2022/04/30 05:46:51;;;;;;;21.98;10.20;;;6.20;99.90;;;;;;5114939;28;20402;-79
2022/04/30 05:49:17;;;;;;;13.38;9.27;;;6.30;99.90;;;;;;5117158;27;20481;-79
2022/04/30 05:51:43;;;;;;;15.95;9.40;;;6.40;99.90;;;;;;5115351;28;20036;-79
2022/04/30 05:54:09;;;;;;;13.10;9.52;;;6.50;99.90;;;;;;5116439;28;20100;-79
2022/04/30 05:56:35;;;;;;;11.00;8.15;;;6.60;99.90;;;;;;5114724;28;20055;-78
2022/04/30 05:59:01;;;;;;;12.32;9.23;;;6.60;99.90;;;;;;5114494;28;20036;-78
2022/04/30 06:01:27;;;;;;;12.82;8.07;;;6.70;99.90;;;;;;5116260;28;20372;-78
2022/04/30 06:03:53;;;;;;;12.70;8.05;;;6.80;99.90;;;;;;5114825;28;20079;-78
2022/04/30 06:06:20;;;;;;;11.57;7.45;;;6.90;99.90;;;;;;5116806;27;20051;-77
2022/04/30 06:08:46;;;;;;;15.43;8.20;;;6.90;99.90;;;;;;5129293;27;20039;-78
2022/04/30 06:11:12;;;;;;;16.08;7.93;;;7.00;99.90;;;;;;5115219;28;20122;-78
2022/04/30 06:13:38;;;;;;;14.63;8.13;;;7.10;99.90;;;;;;5115197;28;20139;-78
2022/04/30 06:16:04;;;;;;;14.27;8.45;;;7.10;99.90;;;;;;5116200;28;20063;-78
2022/04/30 06:18:31;;;;;;;15.13;8.88;;;7.20;99.90;;;;;;5112814;28;20089;-78
2022/04/30 06:20:57;;;;;;;13.93;8.20;;;7.20;99.90;;;;;;5115171;28;20451;-78
2022/04/30 06:23:23;;;;;;;12.25;6.88;;;7.30;99.90;;;;;;5119577;27;20069;-78
2022/04/30 06:25:49;;;;;;;16.67;8.02;;;7.40;99.90;;;;;;5120347;27;20510;-78
2022/04/30 06:28:15;;;;;;;12.18;7.45;;;7.40;99.90;;;;;;5113784;28;20177;-78
2022/04/30 06:30:41;;;;;;;12.18;8.52;;;7.50;99.90;;;;;;5110922;28;20059;-78
2022/04/30 06:33:08;;;;;;;9.35;7.82;;;7.50;99.90;;;;;;5111734;28;20044;-78
2022/04/30 06:35:36;;;;;;;11.35;7.60;;;7.50;99.90;;;;;;5101736;28;20059;-78
2022/04/30 06:38:02;;;;;;;10.80;7.65;;;7.60;99.90;;;;;;5101632;28;20110;-78
2022/04/30 06:40:28;;;;;;;13.43;8.23;;;7.60;99.90;;;;;;5114974;28;20497;-78
2022/04/30 06:42:54;;;;;;;11.75;7.10;;;7.70;99.90;;;;;;5109992;28;20040;-78
2022/04/30 06:45:20;;;;;;;12.75;7.68;;;7.70;99.90;;;;;;5100138;28;20040;-78
2022/04/30 06:47:46;;;;;;;10.07;7.43;;;7.70;99.90;;;;;;5110707;28;20402;-79
2022/04/30 06:50:12;;;;;;;12.40;7.53;;;7.80;99.90;;;;;;5095136;28;20032;-78
2022/04/30 06:58:08;;;;;;;16.63;7.80;;;8.00;99.90;;;;;;5111795;28;20130;-77
2022/04/30 07:03:22;;;;;;;10.15;6.85;;;8.10;99.90;;;;;;5109428;28;20080;-78
2022/04/30 07:05:50;;;;;;;8.27;6.53;;;8.20;99.90;;;;;;5113076;28;20088;-78
2022/04/30 07:08:16;;;;;;;8.68;6.35;;;8.20;99.90;;;;;;5115085;28;20055;-78
2022/04/30 07:10:41;;;;;;;13.77;6.68;;;8.30;99.90;;;;;;5127432;27;20035;-78
2022/04/30 07:13:07;;;;;;;11.15;6.38;;;8.30;99.90;;;;;;5115109;28;20046;-78
2022/04/30 07:15:33;;;;;;;13.02;6.13;;;8.40;99.90;;;;;;5128447;27;20446;-78
2022/04/30 07:17:59;;;;;;;15.93;7.55;;;8.50;99.90;;;;;;5128886;27;20051;-78
2022/04/30 07:20:24;;;;;;;8.82;6.38;;;8.60;99.90;;;;;;5110810;28;20054;-78
2022/04/30 07:22:50;;;;;;;13.73;6.40;;;8.70;99.90;;;;;;5111726;28;20046;-78
2022/04/30 07:25:16;;;;;;;11.05;6.15;;;8.80;99.90;;;;;;5107738;28;20103;-77
2022/04/30 07:27:42;;;;;;;10.35;5.93;;;8.80;99.90;;;;;;5092888;28;20043;-78
2022/04/30 07:30:08;;;;;;;12.23;6.32;;;9.00;99.90;;;;;;5100269;28;20042;-77
2022/04/30 07:32:34;;;;;;;14.70;6.28;;;9.10;99.90;;;;;;5113620;28;20083;-77
2022/04/30 07:35:00;;;;;;;9.70;6.25;;;9.20;99.90;;;;;;5112901;28;20036;-78
2022/04/30 07:37:25;;;;;;;11.25;5.47;;;9.30;99.90;;;;;;5105282;28;20080;-78
2022/04/30 07:39:51;;;;;;;9.40;6.13;;;9.40;99.90;;;;;;5097192;28;20167;-77
2022/04/30 07:42:17;;;;;;;9.40;5.82;;;9.50;99.90;;;;;;5114253;28;20058;-78
2022/04/30 07:44:43;;;;;;;11.70;5.63;;;9.50;99.90;;;;;;5110165;28;20044;-78
2022/04/30 07:47:09;;;;;;;14.82;6.30;;;9.60;99.90;;;;;;5094064;28;20058;-78
2022/04/30 07:49:36;;;;;;;10.52;6.07;;;9.70;99.90;;;;;;5092363;28;20487;-78
2022/04/30 07:52:02;;;;;;;9.50;6.40;;;9.70;99.90;;;;;;5127498;27;20515;-78
2022/04/30 07:54:28;;;;;;;9.38;5.10;;;9.70;99.90;;;;;;5110737;28;20398;-79
2022/04/30 07:56:59;;;;;;;9.68;5.97;;;9.80;99.90;;;;;;5111906;28;20050;-79
2022/04/30 07:59:26;;;;;;;17.42;7.97;;;9.80;99.90;;;;;;5126390;27;20051;-79
2022/04/30 08:01:52;;;;;;;12.48;5.68;;;9.90;99.90;;;;;;5103472;28;20396;-79
2022/04/30 08:04:18;;;;;;;11.60;5.72;;;10.00;99.90;;;;;;5092515;28;20501;-79
2022/04/30 08:06:44;;;;;;;7.82;5.88;;;10.10;99.90;;;;;;5091748;28;20079;-79
2022/04/30 08:09:10;;;;;;;8.88;6.40;;;10.30;99.90;;;;;;5105720;28;20526;-78
2022/04/30 08:11:36;;;;;;;8.55;6.30;;;10.50;99.90;;;;;;5110758;28;20035;-79
2022/04/30 08:14:02;;;;;;;12.57;6.07;;;10.80;99.90;;;;;;5109841;28;20148;-79
2022/04/30 08:16:28;;;;;;;8.02;4.95;;;11.00;99.90;;;;;;5106534;28;20079;-79
2022/04/30 08:18:55;;;;;;;9.75;5.28;;;11.20;99.90;;;;;;5112868;28;20043;-79
2022/04/30 08:21:21;;;;;;;11.00;5.53;;;11.50;99.90;;;;;;5113956;28;20044;-79
2022/04/30 08:23:47;;;;;;;7.78;5.68;;;11.70;99.90;;;;;;5112980;28;20051;-79
2022/04/30 08:26:12;;;;;;;9.25;6.03;;;11.90;99.90;;;;;;5110862;28;20057;-79
2022/04/30 08:28:38;;;;;;;10.18;5.53;;;11.90;99.90;;;;;;5095875;28;20420;-79
2022/04/30 08:31:04;;;;;;;9.80;5.28;;;12.00;99.90;;;;;;5112542;28;20035;-79
2022/04/30 08:33:30;;;;;;;11.57;5.60;;;11.90;99.90;;;;;;5112770;28;20086;-79
2022/04/30 08:35:56;;;;;;;14.43;5.50;;;11.90;99.90;;;;;;5111712;28;20490;-80
2022/04/30 08:38:22;;;;;;;6.97;3.35;;;11.90;99.90;;;;;;5127186;28;20110;-80
2022/04/30 08:40:48;;;;;;;9.60;4.32;;;11.80;99.90;;;;;;5110777;28;20044;-79
2022/04/30 08:43:15;;;;;;;9.80;5.07;;;11.60;99.90;;;;;;5104757;28;20051;-80
2022/04/30 08:45:43;;;;;;;12.20;5.50;;;11.50;99.90;;;;;;5093168;28;20040;-79
2022/04/30 08:48:11;;;;;;;8.40;5.07;;;11.40;99.90;;;;;;5097711;28;20052;-82
2022/04/30 08:50:38;;;;;;;9.05;5.93;;;11.30;99.90;;;;;;5112304;28;20035;-79
2022/04/30 08:53:05;;;;;;;8.02;5.03;;;11.30;99.90;;;;;;5106201;28;20068;-77
2022/04/30 08:55:31;;;;;;;12.23;5.50;;;11.20;99.90;;;;;;5092666;28;20052;-80
2022/04/30 08:57:56;;;;;;;6.40;4.28;;;11.20;99.90;;;;;;5092307;28;20128;-80
2022/04/30 09:00:22;;;;;;;9.55;4.75;;;11.10;99.90;;;;;;5093122;28;20079;-79
2022/04/30 09:02:51;;;;;;;7.68;5.55;;;11.00;99.90;;;;;;5091170;28;20406;-79
2022/04/30 09:05:17;;;;;;;8.40;5.57;;;11.00;99.90;;;;;;5091714;28;20060;-80
2022/04/30 09:07:53;;;;;;;9.20;5.60;;;11.00;99.90;;;;;;5102909;28;20046;-78
2022/04/30 09:10:27;;;;;;;10.55;5.97;;;11.10;99.90;;;;;;5112471;28;20501;-79
2022/04/30 09:12:53;;;;;;;8.93;5.50;;;11.00;99.90;;;;;;5100980;28;20052;-79
2022/04/30 09:15:20;;;;;;;9.57;5.75;;;11.00;99.90;;;;;;5094591;28;20050;-79
2022/04/30 09:17:59;;;;;;;14.30;5.75;;;11.00;99.90;;;;;;5096891;28;20046;-78
2022/04/30 09:20:26;;;;;;;9.90;6.18;;;11.00;99.90;;;;;;5097395;28;20135;-79
2022/04/30 09:22:52;;;;;;;10.35;5.68;;;11.00;99.90;;;;;;5096013;28;20395;-79
2022/04/30 09:25:18;;;;;;;9.85;6.05;;;11.00;99.90;;;;;;5101283;28;20122;-79
2022/04/30 09:27:49;;;;;;;8.55;6.32;;;11.00;99.90;;;;;;5115840;28;20052;-79
2022/04/30 09:30:29;;;;;;;9.77;6.65;;;11.00;99.90;;;;;;5130964;27;20047;-79
2022/04/30 09:33:05;;;;;;;10.43;6.07;;;11.00;99.90;;;;;;5117168;28;20043;-79
2022/04/30 09:38:20;;;;;;;6.55;4.57;;;11.00;99.90;;;;;;5114216;28;20047;-79
2022/04/30 09:40:53;;;;;;;7.93;5.03;;;11.00;99.90;;;;;;5107134;28;20051;-79
2022/04/30 09:43:21;;;;;;;6.75;4.53;;;11.00;99.90;;;;;;5095595;28;20372;-79
2022/04/30 09:45:47;;;;;;;6.57;5.20;;;10.90;99.90;;;;;;5104357;28;20048;-79
2022/04/30 09:53:56;;;;;;;11.27;5.35;;;10.80;99.90;;;;;;5095992;28;20052;-80
2022/04/30 09:56:44;;;;;;;13.60;6.13;;;10.80;99.90;;;;;;5096287;28;20438;-78
2022/04/30 09:59:15;;;;;;;15.93;6.75;;;10.70;99.90;;;;;;5095271;28;20059;-79
2022/04/30 10:01:47;;;;;;;15.75;6.85;;;10.60;99.90;;;;;;5096217;28;20047;-79
2022/04/30 10:04:15;;;;;;;10.32;7.60;;;10.60;99.90;;;;;;5106835;28;20071;-78
2022/04/30 10:06:49;;;;;;;10.65;7.05;;;10.60;99.90;;;;;;5114380;28;20491;-79
2022/04/30 10:09:24;;;;;;;17.63;8.27;;;10.50;99.90;;;;;;5130786;27;20035;-78
2022/04/30 10:12:09;;;;;;;11.98;7.28;;;10.50;99.90;;;;;;5131308;27;20474;-78
2022/04/30 10:15:02;;;;;;;12.68;7.25;;;10.50;99.90;;;;;;5101400;28;20044;-80
2022/04/30 10:17:33;;;;;;;10.45;6.55;;;10.50;99.90;;;;;;5094472;28;20048;-79
2022/04/30 10:20:06;;;;;;;10.35;6.68;;;10.50;99.90;;;;;;5114100;28;20043;-78
2022/04/30 10:22:32;;;;;;;11.63;6.43;;;10.50;99.90;;;;;;5115887;27;20096;-80
2022/04/30 10:24:59;;;;;;;11.95;6.45;;;10.50;99.90;;;;;;5116043;28;20122;-79
2022/04/30 10:27:40;;;;;;;15.98;6.93;;;10.50;99.90;;;;;;5114330;28;20039;-79
2022/04/30 10:30:18;;;;;;;14.57;7.88;;;10.60;99.90;;;;;;5078522;28;20496;-78
2022/04/30 10:32:58;;;;;;;15.90;7.60;;;10.60;99.90;;;;;;5094680;28;20143;-79
2022/04/30 10:35:38;;;;;;;11.13;6.75;;;10.60;99.90;;;;;;5094987;28;20380;-79
2022/04/30 10:38:19;;;;;;;13.20;6.75;;;10.60;99.90;;;;;;5096082;28;20052;-79
2022/04/30 10:40:50;;;;;;;9.43;5.90;;;10.70;99.90;;;;;;5113732;28;20094;-79
2022/04/30 10:43:31;;;;;;;9.48;5.97;;;10.70;99.90;;;;;;5112202;28;20455;-79
2022/04/30 10:45:57;;;;;;;7.72;5.78;;;10.70;99.90;;;;;;5095198;28;20044;-79
2022/04/30 10:48:23;;;;;;;9.63;5.85;;;10.70;99.90;;;;;;5094954;28;20051;-79
2022/04/30 10:51:00;;;;;;;10.75;6.65;;;10.70;99.90;;;;;;5107421;28;20364;-79
2022/04/30 10:53:28;;;;;;;8.18;4.95;;;10.70;99.90;;;;;;5106533;28;20511;-80
2022/04/30 10:55:55;;;;;;;9.07;5.22;;;10.70;99.90;;;;;;5113568;28;20123;-80
2022/04/30 10:58:25;;;;;;;8.73;5.35;;;10.70;99.90;;;;;;5085853;28;20145;-80
2022/04/30 11:00:51;;;;;;;9.50;4.68;;;10.70;99.90;;;;;;5093052;28;20472;-81
2022/04/30 11:03:18;;;;;;;6.95;4.97;;;10.80;99.90;;;;;;5094845;28;20153;-80
2022/04/30 11:05:48;;;;;;;10.80;5.25;;;10.80;99.90;;;;;;5093565;28;20094;-80
2022/04/30 11:08:14;;;;;;;8.07;4.93;;;10.90;99.90;;;;;;5092962;28;20395;-80
2022/04/30 11:10:50;;;;;;;8.75;6.22;;;10.90;99.90;;;;;;5094698;28;20044;-79
2022/04/30 11:13:16;;;;;;;8.48;4.55;;;10.90;99.90;;;;;;5094791;28;20040;-80
2022/04/30 11:15:42;;;;;;;9.63;5.07;;;11.00;99.90;;;;;;5109362;28;20119;-79
2022/04/30 11:18:08;;;;;;;19.52;4.95;;;11.10;99.90;;;;;;5109199;28;20043;-80
2022/04/30 11:20:34;;;;;;;7.15;4.75;;;11.20;99.90;;;;;;5113630;28;20123;-78
2022/04/30 11:23:00;;;;;;;6.40;4.55;;;11.30;99.90;;;;;;5099138;28;20123;-79
2022/04/30 11:25:38;;;;;;;7.05;4.43;;;11.40;99.90;;;;;;5076219;28;20130;-80
2022/04/30 11:28:08;;;;;;;9.30;4.28;;;11.50;99.90;;;;;;5108587;28;20047;-79
2022/04/30 11:30:38;;;;;;;7.38;4.28;;;11.50;99.90;;;;;;5114004;28;20100;-80
2022/04/30 11:33:08;;;;;;;4.90;3.50;;;11.50;99.90;;;;;;5111660;28;20123;-79
2022/04/30 11:35:34;;;;;;;7.70;4.20;;;11.60;99.90;;;;;;5113552;28;20044;-80
2022/04/30 11:38:00;;;;;;;7.18;4.55;;;11.60;99.90;;;;;;5111365;28;20521;-79
2022/04/30 11:40:26;;;;;;;6.38;4.00;;;11.70;99.90;;;;;;5114457;28;20565;-80
2022/04/30 11:43:00;;;;;;;10.07;4.78;;;11.70;99.90;;;;;;5101996;28;20120;-79
2022/04/30 11:45:29;;;;;;;8.50;4.70;;;11.70;99.90;;;;;;5093192;28;20052;-79
2022/04/30 11:47:56;;;;;;;8.18;4.03;;;11.80;99.90;;;;;;5104555;28;20052;-80
2022/04/30 11:50:22;;;;;;;6.88;4.25;;;11.90;99.90;;;;;;5113508;28;20495;-79
2022/04/30 11:52:49;;;;;;;7.57;4.43;;;11.90;99.90;;;;;;5113207;28;20077;-80
2022/04/30 11:55:15;;;;;;;6.57;4.15;;;11.80;99.90;;;;;;5113319;28;20079;-80
2022/04/30 11:57:44;;;;;;;11.60;4.50;;;11.80;99.90;;;;;;5111839;28;20043;-79
2022/04/30 12:00:12;;;;;;;6.95;4.28;;;11.70;99.90;;;;;;5114214;28;20044;-79
2022/04/30 12:02:40;;;;;;;10.68;4.50;;;11.80;99.90;;;;;;5101861;28;20134;-80
2022/04/30 12:05:07;;;;;;;10.10;4.43;;;11.80;99.90;;;;;;5092582;28;20482;-80
2022/04/30 12:07:40;;;;;;;11.07;5.18;;;11.80;99.90;;;;;;5093758;28;20077;-78
2022/04/30 12:10:26;;;;;;;8.70;4.50;;;11.80;99.90;;;;;;5113185;28;20466;-79
2022/04/30 12:12:53;;;;;;;6.10;4.30;;;11.70;99.90;;;;;;5113274;28;20043;-79
2022/04/30 12:15:21;;;;;;;14.63;4.47;;;11.70;99.90;;;;;;5112704;28;20035;-77
2022/04/30 12:24:40;;;;;;;9.40;4.28;;;11.70;99.90;;;;;;5111951;28;20031;-78
2022/04/30 12:26:11;;;;;;;8.90;5.32;;;11.80;99.90;;;;;;5092486;28;20056;-77
2022/04/30 12:28:48;;;;;;;15.23;5.43;;;11.90;99.90;;;;;;5109524;28;20117;-78
2022/04/30 12:31:14;;;;;;;9.10;4.13;;;12.00;99.90;;;;;;5091189;28;20056;-79
2022/04/30 12:33:48;;;;;;;5.97;4.20;;;12.10;99.90;;;;;;5089959;28;20514;-78
2022/04/30 12:36:14;;;;;;;8.87;4.60;;;12.10;99.90;;;;;;5109138;28;20048;-78
2022/04/30 12:38:56;;;;;;;7.32;4.50;;;12.00;99.90;;;;;;5092456;28;20044;-78
2022/04/30 12:41:23;;;;;;;7.38;4.60;;;11.90;99.90;;;;;;5092753;28;20422;-78
2022/04/30 12:43:50;;;;;;;16.00;4.13;;;12.00;99.90;;;;;;5109141;28;20093;-78
2022/04/30 12:46:23;;;;;;;6.80;3.92;;;12.10;99.90;;;;;;5092325;28;20044;-78
2022/04/30 12:48:50;;;;;;;4.60;4.00;;;12.10;99.90;;;;;;5093660;28;20403;-78
2022/04/30 12:51:16;;;;;;;9.48;4.18;;;12.20;99.90;;;;;;5097565;28;20044;-78
2022/04/30 12:53:43;;;;;;;12.75;4.25;;;12.20;99.90;;;;;;5096229;28;20056;-78
2022/04/30 12:56:09;;;;;;;6.15;3.60;;;12.30;99.90;;;;;;5096130;28;20051;-79
2022/04/30 12:58:35;;;;;;;12.88;3.88;;;12.30;99.90;;;;;;5096057;28;20048;-78
2022/04/30 13:01:01;;;;;;;9.23;4.13;;;12.20;99.90;;;;;;5096381;28;20047;-78
2022/04/30 13:03:27;;;;;;;8.02;4.20;;;12.10;99.90;;;;;;5097073;28;20052;-77
2022/04/30 13:05:53;;;;;;;6.57;4.22;;;12.00;99.90;;;;;;5097099;28;20403;-77
2022/04/30 13:08:19;;;;;;;8.63;5.30;;;12.00;99.90;;;;;;5096299;28;20044;-78
2022/04/30 13:13:32;;;;;;;8.68;4.90;;;11.90;99.90;;;;;;5096845;28;20539;-77
2022/04/30 13:15:58;;;;;;;10.77;4.93;;;11.80;99.90;;;;;;5094750;28;20566;-78
2022/04/30 13:18:24;;;;;;;7.60;4.25;;;11.90;99.90;;;;;;5095703;28;20119;-78
2022/04/30 13:20:50;;;;;;;6.70;3.70;;;11.90;99.90;;;;;;5096969;28;20118;-78
2022/04/30 13:23:16;;;;;;;7.35;3.55;;;12.00;99.90;;;;;;5094814;28;20040;-78
2022/04/30 13:25:41;;;;;;;7.18;4.43;;;11.90;99.90;;;;;;5095296;28;20115;-78
2022/04/30 13:28:07;;;;;;;7.95;4.10;;;12.00;99.90;;;;;;5096804;28;20426;-78
2022/04/30 13:30:33;;;;;;;10.02;4.63;;;12.00;99.90;;;;;;5096046;28;20483;-79
2022/04/30 13:32:59;;;;;;;5.95;4.38;;;11.90;99.90;;;;;;5095431;28;20044;-78
2022/04/30 13:35:25;;;;;;;9.68;5.35;;;11.80;99.90;;;;;;5094795;28;20522;-79